createdAt,value
2022-09-24T00:01:32.649Z,26.20
2022-09-24T00:04:05.331Z,26.10
2022-09-24T00:06:41.346Z,26.20
2022-09-24T00:09:09.922Z,26.20
2022-09-24T00:11:38.704Z,26.20
2022-09-24T00:14:07.257Z,26.20
2022-09-24T00:16:35.777Z,26.20
2022-09-24T00:19:04.375Z,26.20
2022-09-24T00:21:33.240Z,26.20
2022-09-24T00:24:02.838Z,26.20
2022-09-24T00:26:48.744Z,26.20
2022-09-24T00:29:18.909Z,26.20
2022-09-24T00:31:46.674Z,26.10
2022-09-24T00:34:14.689Z,26.20
2022-09-24T00:36:42.948Z,26.20
2022-09-24T00:39:10.609Z,26.20
2022-09-24T00:41:42.627Z,26.20
2022-09-24T00:44:29.038Z,26.20
2022-09-24T00:46:56.984Z,26.20
2022-09-24T00:49:25.109Z,26.20
2022-09-24T00:51:53.127Z,26.20
2022-09-24T00:54:23.603Z,26.20
2022-09-24T00:56:52.289Z,26.20
2022-09-24T00:59:23.421Z,26.20
2022-09-24T01:01:52.058Z,26.20
2022-09-24T01:04:23.282Z,26.20
2022-09-24T01:06:52.221Z,26.20
2022-09-24T01:09:20.501Z,26.10
2022-09-24T01:12:06.780Z,26.20
2022-09-24T01:14:41.670Z,26.10
2022-09-24T01:17:15.333Z,26.10
2022-09-24T01:20:02.238Z,26.20
2022-09-24T01:22:48.322Z,26.20
2022-09-24T01:25:16.316Z,26.20
2022-09-24T01:27:56.824Z,26.10
2022-09-24T01:30:25.803Z,26.10
2022-09-24T01:32:58.162Z,26.10
2022-09-24T01:35:32.505Z,26.10
2022-09-24T01:38:05.112Z,26.10
2022-09-24T01:40:33.114Z,26.10
2022-09-24T01:43:02.650Z,26.10
2022-09-24T01:45:32.202Z,26.10
2022-09-24T01:48:01.087Z,26.10
2022-09-24T01:50:30.181Z,26.10
2022-09-24T01:52:58.583Z,26.10
2022-09-24T01:55:28.745Z,26.10
2022-09-24T01:57:59.846Z,26.10
2022-09-24T02:00:27.989Z,26.10
2022-09-24T02:02:56.022Z,26.10
2022-09-24T02:05:34.856Z,26.10
2022-09-24T02:08:05.219Z,26.10
2022-09-24T02:10:38.271Z,26.10
2022-09-24T02:13:08.196Z,26.10
2022-09-24T02:15:38.380Z,26.10
2022-09-24T02:18:13.685Z,26.10
2022-09-24T02:20:42.798Z,26.10
2022-09-24T02:23:12.054Z,26.00
2022-09-24T02:25:43.221Z,26.00
2022-09-24T02:28:11.255Z,26.00
2022-09-24T02:30:41.701Z,26.10
2022-09-24T02:33:30.573Z,26.00
2022-09-24T02:35:58.836Z,26.00
2022-09-24T02:38:26.485Z,26.00
2022-09-24T02:40:54.959Z,26.00
2022-09-24T02:43:22.931Z,26.00
2022-09-24T02:45:50.560Z,26.00
2022-09-24T02:48:18.206Z,26.00
2022-09-24T02:50:46.381Z,26.00
2022-09-24T02:53:13.935Z,26.00
2022-09-24T02:55:42.126Z,26.00
2022-09-24T02:58:10.089Z,26.00
2022-09-24T03:00:37.773Z,26.00
2022-09-24T03:03:05.407Z,26.00
2022-09-24T03:05:33.583Z,26.00
2022-09-24T03:08:01.451Z,26.00
2022-09-24T03:10:29.196Z,26.00
2022-09-24T03:12:57.207Z,26.00
2022-09-24T03:15:24.927Z,26.00
2022-09-24T03:17:52.600Z,26.00
2022-09-24T03:20:20.530Z,26.00
2022-09-24T03:22:52.035Z,26.00
2022-09-24T03:25:20.985Z,26.00
2022-09-24T03:27:48.691Z,25.90
2022-09-24T03:30:34.730Z,26.00
2022-09-24T03:33:02.718Z,26.00
2022-09-24T03:35:30.353Z,26.00
2022-09-24T03:37:57.994Z,26.00
2022-09-24T03:40:26.005Z,25.90
2022-09-24T03:42:53.605Z,25.90
2022-09-24T03:45:21.361Z,25.90
2022-09-24T03:47:49.409Z,25.90
2022-09-24T03:50:17.510Z,25.90
2022-09-24T03:52:45.174Z,25.90
2022-09-24T03:55:13.087Z,25.90
2022-09-24T03:57:40.704Z,25.90
2022-09-24T04:00:08.815Z,25.90
2022-09-24T04:02:37.040Z,25.90
2022-09-24T04:05:04.820Z,25.90
2022-09-24T04:07:33.169Z,25.90
2022-09-24T04:10:01.223Z,25.90
2022-09-24T04:12:29.394Z,25.80
2022-09-24T04:14:57.045Z,25.90
2022-09-24T04:17:26.936Z,25.90
2022-09-24T04:19:55.189Z,25.90
2022-09-24T04:22:22.902Z,25.80
2022-09-24T04:24:51.545Z,25.80
2022-09-24T04:27:19.348Z,25.80
2022-09-24T04:29:46.962Z,25.80
2022-09-24T04:32:15.030Z,25.80
2022-09-24T04:34:42.704Z,25.80
2022-09-24T04:37:10.608Z,25.80
2022-09-24T04:39:38.568Z,25.80
2022-09-24T04:42:06.202Z,25.80
2022-09-24T04:44:33.876Z,25.80
2022-09-24T04:47:03.312Z,25.80
2022-09-24T04:49:30.907Z,25.80
2022-09-24T04:51:58.756Z,25.80
2022-09-24T04:54:28.128Z,25.80
2022-09-24T04:56:55.659Z,25.80
2022-09-24T04:59:23.915Z,25.80
2022-09-24T05:01:54.657Z,25.80
2022-09-24T05:04:22.390Z,25.80
2022-09-24T05:06:50.234Z,25.80
2022-09-24T05:09:18.665Z,25.80
2022-09-24T05:11:46.358Z,25.80
2022-09-24T05:17:13.005Z,25.70
2022-09-24T05:19:41.173Z,25.80
2022-09-24T05:22:08.839Z,25.70
2022-09-24T05:24:36.895Z,25.70
2022-09-24T05:27:10.642Z,25.70
2022-09-24T05:29:39.717Z,25.70
2022-09-24T05:32:08.292Z,25.70
2022-09-24T05:34:35.980Z,25.70
2022-09-24T05:37:04.207Z,25.70
2022-09-24T05:39:34.199Z,25.70
2022-09-24T05:42:05.598Z,25.70
2022-09-24T05:44:33.759Z,25.70
2022-09-24T05:47:01.436Z,25.70
2022-09-24T05:49:29.214Z,25.70
2022-09-24T05:51:57.286Z,25.70
2022-09-24T05:54:24.917Z,25.70
2022-09-24T05:56:52.580Z,25.70
2022-09-24T05:59:20.570Z,25.70
2022-09-24T06:01:49.394Z,25.70
2022-09-24T06:04:17.624Z,25.70
2022-09-24T06:06:45.546Z,25.70
2022-09-24T06:09:13.801Z,25.70
2022-09-24T06:11:42.508Z,25.60
2022-09-24T06:14:10.179Z,25.60
2022-09-24T06:16:37.819Z,25.70
2022-09-24T06:19:06.039Z,25.70
2022-09-24T06:21:33.917Z,25.60
2022-09-24T06:24:01.706Z,25.60
2022-09-24T06:26:29.758Z,25.60
2022-09-24T06:29:02.181Z,25.60
2022-09-24T06:31:32.703Z,25.60
2022-09-24T06:34:00.735Z,25.60
2022-09-24T06:36:28.508Z,25.60
2022-09-24T06:38:58.922Z,25.60
2022-09-24T06:41:26.547Z,25.60
2022-09-24T06:43:54.836Z,25.60
2022-09-24T06:46:26.290Z,25.60
2022-09-24T06:48:56.691Z,25.60
2022-09-24T06:51:24.741Z,25.60
2022-09-24T06:53:52.909Z,25.60
2022-09-24T06:56:20.615Z,25.60
2022-09-24T06:58:48.678Z,25.60
2022-09-24T07:01:16.448Z,25.60
2022-09-24T07:03:44.095Z,25.60
2022-09-24T07:06:12.060Z,25.60
2022-09-24T07:08:39.794Z,25.60
2022-09-24T07:11:08.053Z,25.60
2022-09-24T07:13:36.124Z,25.50
2022-09-24T07:16:03.887Z,25.50
2022-09-24T07:18:31.617Z,25.50
2022-09-24T07:20:59.685Z,25.50
2022-09-24T07:23:28.167Z,25.50
2022-09-24T07:25:56.547Z,25.50
2022-09-24T07:28:24.562Z,25.50
2022-09-24T07:31:01.324Z,25.50
2022-09-24T07:33:31.239Z,25.50
2022-09-24T07:35:58.911Z,25.50
2022-09-24T07:38:27.311Z,25.50
2022-09-24T07:40:58.374Z,25.50
2022-09-24T07:43:27.189Z,25.50
2022-09-24T07:45:55.874Z,25.50
2022-09-24T07:48:23.908Z,25.50
2022-09-24T07:50:51.633Z,25.50
2022-09-24T07:53:19.954Z,25.50
2022-09-24T07:55:47.671Z,25.50
2022-09-24T07:58:15.494Z,25.50
2022-09-24T08:00:43.506Z,25.50
2022-09-24T08:03:11.668Z,25.50
2022-09-24T08:05:45.739Z,25.50
2022-09-24T08:08:14.935Z,25.50
2022-09-24T08:10:43.255Z,25.50
2022-09-24T08:13:11.303Z,25.50
2022-09-24T08:15:39.346Z,25.50
2022-09-24T08:18:07.287Z,25.50
2022-09-24T08:20:36.659Z,25.50
2022-09-24T08:23:05.494Z,25.50
2022-09-24T08:25:33.398Z,25.50
2022-09-24T08:28:05.077Z,25.50
2022-09-24T08:30:34.018Z,25.50
2022-09-24T08:33:01.632Z,25.50
2022-09-24T08:35:29.337Z,25.50
2022-09-24T08:37:57.359Z,25.50
2022-09-24T08:40:26.443Z,25.50
2022-09-24T08:42:58.549Z,25.50
2022-09-24T08:45:44.910Z,25.50
2022-09-24T08:48:15.896Z,25.50
2022-09-24T08:50:49.826Z,25.50
2022-09-24T08:53:23.957Z,25.50
2022-09-24T08:55:53.461Z,25.50
2022-09-24T08:58:33.268Z,25.50
2022-09-24T09:01:07.817Z,25.50
2022-09-24T09:03:37.524Z,25.40
2022-09-24T09:06:09.911Z,25.50
2022-09-24T09:09:07.261Z,25.50
2022-09-24T09:11:37.035Z,25.50
2022-09-24T09:14:09.199Z,25.40
2022-09-24T09:16:43.362Z,25.50
2022-09-24T09:19:14.162Z,25.50
2022-09-24T09:21:54.681Z,25.40
2022-09-24T09:24:27.529Z,25.50
2022-09-24T09:26:56.382Z,25.50
2022-09-24T09:29:26.265Z,25.50
2022-09-24T09:32:06.016Z,25.40
2022-09-24T09:34:36.813Z,25.40
2022-09-24T09:37:26.336Z,25.40
2022-09-24T09:40:05.497Z,25.40
2022-09-24T09:42:36.431Z,25.40
2022-09-24T09:45:28.103Z,25.50
2022-09-24T09:47:57.403Z,25.50
2022-09-24T09:50:31.883Z,25.50
2022-09-24T09:52:59.693Z,25.50
2022-09-24T09:55:29.751Z,25.50
2022-09-24T09:58:17.635Z,25.50
2022-09-24T10:00:49.851Z,25.50
2022-09-24T10:03:41.395Z,25.40
2022-09-24T10:06:09.168Z,25.40
2022-09-24T10:08:37.168Z,25.40
2022-09-24T10:11:05.045Z,25.40
2022-09-24T10:13:32.878Z,25.50
2022-09-24T10:16:02.267Z,25.50
2022-09-24T10:18:34.719Z,25.50
2022-09-24T10:21:05.401Z,25.50
2022-09-24T10:23:35.646Z,25.40
2022-09-24T10:26:04.441Z,25.50
2022-09-24T10:28:52.049Z,25.50
2022-09-24T10:31:24.534Z,25.50
2022-09-24T10:33:55.026Z,25.50
2022-09-24T10:36:24.540Z,25.60
2022-09-24T10:39:24.710Z,25.50
2022-09-24T10:41:53.697Z,25.50
2022-09-24T10:44:21.928Z,25.50
2022-09-24T10:46:58.670Z,25.50
2022-09-24T10:49:27.636Z,25.40
2022-09-24T10:52:10.536Z,25.50
2022-09-24T10:54:50.024Z,25.50
2022-09-24T10:57:20.855Z,25.50
2022-09-24T10:59:51.670Z,25.50
2022-09-24T11:02:27.766Z,25.50
2022-09-24T11:04:57.130Z,25.50
2022-09-24T11:07:36.867Z,25.50
2022-09-24T11:10:23.481Z,25.50
2022-09-24T11:13:03.266Z,25.50
2022-09-24T11:15:51.223Z,25.50
2022-09-24T11:18:31.963Z,25.50
2022-09-24T11:21:15.787Z,25.50
2022-09-24T11:23:48.673Z,25.60
2022-09-24T11:26:19.419Z,25.50
2022-09-24T11:28:53.598Z,25.60
2022-09-24T11:31:21.578Z,25.60
2022-09-24T11:34:07.990Z,25.60
2022-09-24T11:36:54.956Z,25.60
2022-09-24T11:39:45.227Z,25.60
2022-09-24T11:42:22.555Z,25.60
2022-09-24T11:45:13.299Z,25.60
2022-09-24T11:48:05.345Z,25.60
2022-09-24T11:50:53.822Z,25.60
2022-09-24T11:53:40.861Z,25.60
2022-09-24T11:56:13.069Z,25.60
2022-09-24T11:58:42.734Z,25.60
2022-09-24T12:01:15.994Z,25.60
2022-09-24T12:03:43.970Z,25.60
2022-09-24T12:06:13.762Z,25.60
2022-09-24T12:08:44.670Z,25.60
2022-09-24T12:11:24.991Z,25.70
2022-09-24T12:13:57.311Z,25.60
2022-09-24T12:16:27.335Z,25.70
2022-09-24T12:19:14.253Z,25.70
2022-09-24T12:21:43.669Z,25.70
2022-09-24T12:24:14.191Z,25.70
2022-09-24T12:26:43.191Z,25.70
2022-09-24T12:29:48.381Z,25.70
2022-09-24T12:32:37.786Z,25.70
2022-09-24T12:35:09.124Z,25.80
2022-09-24T12:37:42.228Z,25.70
2022-09-24T12:40:10.659Z,25.70
2022-09-24T12:42:45.316Z,25.80
2022-09-24T12:45:21.357Z,25.80
2022-09-24T12:47:51.875Z,25.80
2022-09-24T12:50:22.042Z,25.80
2022-09-24T12:52:50.098Z,25.80
2022-09-24T12:55:31.670Z,25.80
2022-09-24T12:58:04.656Z,25.80
2022-09-24T13:00:32.244Z,25.70
2022-09-24T13:03:00.946Z,25.60
2022-09-24T13:05:48.918Z,25.70
2022-09-24T13:08:26.033Z,25.70
2022-09-24T13:10:56.095Z,25.80
2022-09-24T13:13:25.871Z,25.70
2022-09-24T13:16:01.641Z,25.80
2022-09-24T13:18:30.775Z,25.80
2022-09-24T13:21:03.014Z,25.80
2022-09-24T13:23:32.608Z,25.80
2022-09-24T13:26:05.365Z,25.80
2022-09-24T13:28:39.777Z,25.70
2022-09-24T13:31:13.978Z,25.70
2022-09-24T13:33:46.243Z,25.80
2022-09-24T13:36:29.160Z,25.70
2022-09-24T13:39:15.358Z,25.70
2022-09-24T13:41:50.530Z,25.70
2022-09-24T13:44:22.763Z,25.70
2022-09-24T13:46:52.434Z,25.70
2022-09-24T13:49:21.986Z,25.70
2022-09-24T13:52:06.320Z,25.70
2022-09-24T13:54:37.147Z,25.80
2022-09-24T13:57:34.087Z,25.80
2022-09-24T14:00:13.295Z,25.80
2022-09-24T14:02:41.709Z,25.80
2022-09-24T14:05:15.032Z,25.80
2022-09-24T14:07:43.623Z,25.80
2022-09-24T14:10:14.714Z,25.80
2022-09-24T14:12:42.515Z,25.80
2022-09-24T14:15:15.168Z,25.80
2022-09-24T14:17:42.946Z,25.80
2022-09-24T14:20:16.070Z,25.80
2022-09-24T14:22:46.021Z,25.80
2022-09-24T14:25:19.568Z,25.80
2022-09-24T14:27:51.176Z,25.80
2022-09-24T14:30:23.077Z,25.80
2022-09-24T14:33:11.007Z,25.80
2022-09-24T14:35:39.574Z,25.80
2022-09-24T14:38:16.292Z,25.80
2022-09-24T14:40:53.204Z,25.80
2022-09-24T14:43:21.077Z,25.80
2022-09-24T14:45:50.200Z,25.80
2022-09-24T14:48:17.964Z,25.80
2022-09-24T14:50:45.714Z,25.80
2022-09-24T14:53:14.559Z,25.80
2022-09-24T14:55:43.637Z,25.80
2022-09-24T14:58:36.677Z,25.80
2022-09-24T15:01:14.236Z,25.80
2022-09-24T15:03:43.928Z,25.80
2022-09-24T15:06:18.327Z,25.80
2022-09-24T15:08:52.352Z,25.80
2022-09-24T15:11:20.400Z,25.80
2022-09-24T15:13:57.758Z,25.80
2022-09-24T15:16:32.253Z,25.80
2022-09-24T15:18:59.928Z,25.80
2022-09-24T15:21:28.129Z,25.80
2022-09-24T15:23:56.078Z,25.80
2022-09-24T15:26:25.340Z,25.80
2022-09-24T15:28:53.326Z,25.80
2022-09-24T15:31:21.125Z,25.80
2022-09-24T15:33:48.981Z,25.80
2022-09-24T15:36:21.199Z,25.80
2022-09-24T15:38:49.819Z,25.80
2022-09-24T15:41:18.245Z,25.80
2022-09-24T15:43:46.263Z,25.80
2022-09-24T15:46:14.065Z,25.80
2022-09-24T15:48:42.139Z,25.90
2022-09-24T15:51:13.794Z,25.80
2022-09-24T15:53:43.667Z,25.80
2022-09-24T15:56:11.666Z,25.80
2022-09-24T15:58:39.300Z,25.80
2022-09-24T16:01:08.305Z,25.80
2022-09-24T16:03:36.904Z,25.80
2022-09-24T16:06:04.555Z,25.80
2022-09-24T16:08:32.179Z,25.80
2022-09-24T16:11:00.396Z,25.90
2022-09-24T16:13:28.130Z,25.90
2022-09-24T16:15:55.828Z,25.90
2022-09-24T16:18:26.346Z,25.90
2022-09-24T16:20:54.119Z,25.90
2022-09-24T16:23:21.804Z,25.90
2022-09-24T16:25:56.737Z,25.90
2022-09-24T16:28:25.123Z,25.80
2022-09-24T16:30:53.510Z,25.80
2022-09-24T16:33:21.706Z,25.80
2022-09-24T16:35:49.613Z,25.80
2022-09-24T16:38:22.622Z,25.80
2022-09-24T16:40:59.294Z,25.80
2022-09-24T16:43:27.584Z,25.80
2022-09-24T16:46:00.024Z,25.80
2022-09-24T16:48:28.159Z,25.90
2022-09-24T16:51:03.129Z,25.90
2022-09-24T16:53:31.415Z,25.80
2022-09-24T16:56:03.337Z,25.80
2022-09-24T16:58:33.023Z,25.90
2022-09-24T17:01:03.518Z,25.90
2022-09-24T17:03:31.484Z,25.80
2022-09-24T17:05:59.209Z,25.90
2022-09-24T17:08:47.108Z,25.90
2022-09-24T17:11:15.206Z,25.90
2022-09-24T17:13:43.016Z,25.90
2022-09-24T17:16:10.730Z,25.90
2022-09-24T17:18:38.738Z,25.80
2022-09-24T17:21:08.017Z,25.90
2022-09-24T17:23:35.997Z,25.80
2022-09-24T17:26:08.671Z,25.80
2022-09-24T17:28:37.018Z,25.80
2022-09-24T17:31:05.861Z,25.80
2022-09-24T17:33:48.692Z,25.80
2022-09-24T17:36:16.976Z,25.80
2022-09-24T17:38:44.693Z,25.80
2022-09-24T17:41:13.583Z,25.80
2022-09-24T17:43:41.995Z,25.80
2022-09-24T17:46:13.822Z,25.80
2022-09-24T17:48:44.802Z,25.80
2022-09-24T17:51:17.135Z,25.80
2022-09-24T17:53:45.183Z,25.70
2022-09-24T17:56:13.536Z,25.80
2022-09-24T17:58:42.458Z,25.70
2022-09-24T18:01:14.492Z,25.80
2022-09-24T18:03:42.629Z,25.80
2022-09-24T18:06:11.494Z,25.80
2022-09-24T18:08:40.234Z,25.70
2022-09-24T18:11:11.028Z,25.70
2022-09-24T18:13:39.102Z,25.70
2022-09-24T18:16:11.230Z,25.70
2022-09-24T18:18:39.726Z,25.70
2022-09-24T18:21:08.915Z,25.70
2022-09-24T18:23:37.137Z,25.70
2022-09-24T18:26:10.945Z,25.70
2022-09-24T18:28:40.075Z,25.70
2022-09-24T18:31:09.014Z,25.70
2022-09-24T18:33:37.500Z,25.70
2022-09-24T18:36:06.987Z,25.70
2022-09-24T18:38:35.308Z,25.70
2022-09-24T18:41:13.131Z,25.70
2022-09-24T18:43:41.357Z,25.70
2022-09-24T18:46:10.992Z,25.70
2022-09-24T18:48:39.280Z,25.70
2022-09-24T18:51:08.356Z,25.70
2022-09-24T18:53:36.035Z,25.60
2022-09-24T18:56:05.057Z,25.70
2022-09-24T18:58:33.354Z,25.60
2022-09-24T19:01:04.860Z,25.70
2022-09-24T19:03:32.807Z,25.60
2022-09-24T19:06:01.641Z,25.60
2022-09-24T19:08:32.361Z,25.60
2022-09-24T19:11:07.729Z,25.60
2022-09-24T19:13:37.303Z,25.60
2022-09-24T19:16:06.736Z,25.60
2022-09-24T19:18:35.563Z,25.60
2022-09-24T19:21:06.765Z,25.60
2022-09-24T19:23:42.011Z,25.60
2022-09-24T19:26:10.525Z,25.60
2022-09-24T19:28:41.073Z,25.60
2022-09-24T19:31:16.837Z,25.60
2022-09-24T19:33:44.932Z,25.60
2022-09-24T19:36:13.432Z,25.60
2022-09-24T19:38:42.204Z,25.60
2022-09-24T19:41:15.375Z,25.60
2022-09-24T19:43:45.931Z,25.60
2022-09-24T19:46:15.210Z,25.60
2022-09-24T19:48:44.614Z,25.60
2022-09-24T19:51:13.633Z,25.60
2022-09-24T19:53:41.913Z,25.60
2022-09-24T19:56:10.950Z,25.50
2022-09-24T19:58:38.710Z,25.60
2022-09-24T20:01:07.941Z,25.60
2022-09-24T20:03:36.449Z,25.50
2022-09-24T20:06:11.383Z,25.50
2022-09-24T20:08:39.733Z,25.50
2022-09-24T20:11:08.512Z,25.60
2022-09-24T20:13:36.288Z,25.50
2022-09-24T20:16:05.140Z,25.50
2022-09-24T20:18:34.884Z,25.50
2022-09-24T20:21:03.994Z,25.50
2022-09-24T20:23:31.912Z,25.50
2022-09-24T20:26:18.362Z,25.50
2022-09-24T20:28:46.824Z,25.50
2022-09-24T20:31:16.393Z,25.50
2022-09-24T20:33:44.134Z,25.50
2022-09-24T20:36:16.585Z,25.50
2022-09-24T20:38:46.759Z,25.50
2022-09-24T20:41:16.160Z,25.40
2022-09-24T20:43:45.765Z,25.40
2022-09-24T20:46:18.140Z,25.50
2022-09-24T20:48:46.361Z,25.50
2022-09-24T20:51:15.528Z,25.40
2022-09-24T20:53:43.182Z,25.40
2022-09-24T20:56:11.677Z,25.40
2022-09-24T20:58:40.284Z,25.40
2022-09-24T21:01:09.519Z,25.40
2022-09-24T21:03:44.314Z,25.40
2022-09-24T21:06:12.930Z,25.40
2022-09-24T21:08:42.079Z,25.40
2022-09-24T21:11:11.162Z,25.40
2022-09-24T21:13:43.128Z,25.40
2022-09-24T21:16:11.836Z,25.40
2022-09-24T21:18:40.885Z,25.40
2022-09-24T21:21:11.544Z,25.40
2022-09-24T21:23:40.301Z,25.40
2022-09-24T21:26:19.146Z,25.40
2022-09-24T21:28:48.310Z,25.40
2022-09-24T21:31:21.427Z,25.40
2022-09-24T21:33:50.528Z,25.40
2022-09-24T21:36:19.593Z,25.40
2022-09-24T21:38:54.693Z,25.40
2022-09-24T21:41:27.423Z,25.40
2022-09-24T21:43:55.879Z,25.40
2022-09-24T21:46:24.912Z,25.40
2022-09-24T21:48:52.646Z,25.40
2022-09-24T21:51:22.075Z,25.40
2022-09-24T21:53:50.950Z,25.40
2022-09-24T21:56:19.582Z,25.40
2022-09-24T21:58:47.904Z,25.40
2022-09-24T22:01:17.322Z,25.40
2022-09-24T22:03:45.782Z,25.40
2022-09-24T22:06:14.321Z,25.40
2022-09-24T22:08:42.797Z,25.40
2022-09-24T22:11:11.639Z,25.40
2022-09-24T22:13:39.949Z,25.40
2022-09-24T22:16:08.703Z,25.40
2022-09-24T22:18:36.934Z,25.30
2022-09-24T22:21:08.728Z,25.40
2022-09-24T22:23:36.875Z,25.30
2022-09-24T22:26:04.470Z,25.30
2022-09-24T22:28:32.329Z,25.30
2022-09-24T22:31:03.158Z,25.30
2022-09-24T22:33:49.726Z,25.30
2022-09-24T22:36:17.886Z,25.30
2022-09-24T22:38:45.925Z,25.30
2022-09-24T22:41:13.917Z,25.30
2022-09-24T22:43:41.927Z,25.30
2022-09-24T22:46:11.273Z,25.30
2022-09-24T22:48:39.386Z,25.30
2022-09-24T22:51:08.374Z,25.30
2022-09-24T22:53:36.888Z,25.30
2022-09-24T22:56:04.676Z,25.30
2022-09-24T22:58:32.901Z,25.30
2022-09-24T23:01:07.934Z,25.30
2022-09-24T23:03:36.584Z,25.30
2022-09-24T23:06:06.302Z,25.20
2022-09-24T23:08:35.335Z,25.20
2022-09-24T23:11:23.428Z,25.20
2022-09-24T23:13:52.901Z,25.20
2022-09-24T23:16:22.885Z,25.20
2022-09-24T23:18:52.460Z,25.20
2022-09-24T23:21:20.682Z,25.20
2022-09-24T23:23:52.394Z,25.20
2022-09-24T23:26:20.315Z,25.20
2022-09-24T23:28:51.309Z,25.20
2022-09-24T23:31:21.205Z,25.20
2022-09-24T23:33:50.116Z,25.20
2022-09-24T23:36:17.998Z,25.20
2022-09-24T23:38:45.646Z,25.20
2022-09-24T23:41:14.212Z,25.20
2022-09-24T23:43:42.372Z,25.20
2022-09-24T23:46:10.725Z,25.20
2022-09-24T23:48:39.250Z,25.20
2022-09-24T23:51:07.385Z,25.20
2022-09-24T23:53:35.169Z,25.20
2022-09-24T23:56:03.954Z,25.20
2022-09-24T23:58:31.585Z,25.10
